sensor_id;sensor_type;location;lat;lon;timestamp;P1;durP1;ratioP1;P2;durP2;ratioP2
59984;SDS011;45843;47.532;18.660;2023-01-08T00:02:01;0.15;;;0.15;;
59984;SDS011;45843;47.532;18.660;2023-01-08T00:04:27;0.30;;;0.30;;
59984;SDS011;45843;47.532;18.660;2023-01-08T00:06:53;0.25;;;0.25;;
59984;SDS011;45843;47.532;18.660;2023-01-08T00:10:00;0.17;;;0.17;;
59984;SDS011;45843;47.532;18.660;2023-01-08T00:12:26;0.17;;;0.17;;
59984;SDS011;45843;47.532;18.660;2023-01-08T00:14:53;0.20;;;0.20;;
59984;SDS011;45843;47.532;18.660;2023-01-08T00:17:19;0.20;;;0.20;;
59984;SDS011;45843;47.532;18.660;2023-01-08T00:19:46;0.10;;;0.10;;
59984;SDS011;45843;47.532;18.660;2023-01-08T00:22:12;0.10;;;0.10;;
59984;SDS011;45843;47.532;18.660;2023-01-08T00:24:38;0.20;;;0.20;;
59984;SDS011;45843;47.532;18.660;2023-01-08T00:27:05;0.10;;;0.10;;
59984;SDS011;45843;47.532;18.660;2023-01-08T00:29:32;0.10;;;0.10;;
59984;SDS011;45843;47.532;18.660;2023-01-08T00:32:38;0.22;;;0.22;;
59984;SDS011;45843;47.532;18.660;2023-01-08T00:35:44;0.20;;;0.20;;
59984;SDS011;45843;47.532;18.660;2023-01-08T00:38:51;0.15;;;0.15;;
59984;SDS011;45843;47.532;18.660;2023-01-08T00:41:57;0.30;;;0.30;;
59984;SDS011;45843;47.532;18.660;2023-01-08T00:45:03;0.10;;;0.10;;
59984;SDS011;45843;47.532;18.660;2023-01-08T00:48:09;0.25;;;0.25;;
59984;SDS011;45843;47.532;18.660;2023-01-08T00:51:16;0.20;;;0.20;;
59984;SDS011;45843;47.532;18.660;2023-01-08T00:54:22;0.20;;;0.20;;
59984;SDS011;45843;47.532;18.660;2023-01-08T00:57:31;0.30;;;0.30;;
59984;SDS011;45843;47.532;18.660;2023-01-08T01:00:33;0.30;;;0.30;;
59984;SDS011;45843;47.532;18.660;2023-01-08T01:02:59;0.20;;;0.20;;
59984;SDS011;45843;47.532;18.660;2023-01-08T01:06:06;0.15;;;0.15;;
59984;SDS011;45843;47.532;18.660;2023-01-08T01:09:12;0.20;;;0.20;;
59984;SDS011;45843;47.532;18.660;2023-01-08T01:12:18;0.22;;;0.22;;
59984;SDS011;45843;47.532;18.660;2023-01-08T01:15:24;0.15;;;0.15;;
59984;SDS011;45843;47.532;18.660;2023-01-08T01:18:31;0.20;;;0.20;;
59984;SDS011;45843;47.532;18.660;2023-01-08T01:21:37;0.10;;;0.10;;
59984;SDS011;45843;47.532;18.660;2023-01-08T01:24:43;0.28;;;0.28;;
59984;SDS011;45843;47.532;18.660;2023-01-08T01:27:49;0.20;;;0.20;;
59984;SDS011;45843;47.532;18.660;2023-01-08T01:30:55;0.10;;;0.10;;
59984;SDS011;45843;47.532;18.660;2023-01-08T01:34:02;0.17;;;0.17;;
59984;SDS011;45843;47.532;18.660;2023-01-08T01:37:10;0.10;;;0.10;;
59984;SDS011;45843;47.532;18.660;2023-01-08T01:40:14;0.40;;;0.40;;
59984;SDS011;45843;47.532;18.660;2023-01-08T01:43:37;0.30;;;0.30;;
59984;SDS011;45843;47.532;18.660;2023-01-08T01:46:42;0.05;;;0.05;;
59984;SDS011;45843;47.532;18.660;2023-01-08T01:52:58;0.20;;;0.20;;
59984;SDS011;45843;47.532;18.660;2023-01-08T01:56:03;0.10;;;0.10;;
59984;SDS011;45843;47.532;18.660;2023-01-08T01:59:09;0.25;;;0.25;;
59984;SDS011;45843;47.532;18.660;2023-01-08T02:02:14;0.28;;;0.28;;
59984;SDS011;45843;47.532;18.660;2023-01-08T02:05:20;0.30;;;0.30;;
59984;SDS011;45843;47.532;18.660;2023-01-08T02:08:30;0.20;;;0.20;;
59984;SDS011;45843;47.532;18.660;2023-01-08T02:14:41;0.20;;;0.20;;
59984;SDS011;45843;47.532;18.660;2023-01-08T02:26:35;0.30;;;0.30;;
59984;SDS011;45843;47.532;18.660;2023-01-08T02:47:50;0.20;;;0.20;;
59984;SDS011;45843;47.532;18.660;2023-01-08T02:50:59;0.20;;;0.20;;
59984;SDS011;45843;47.532;18.660;2023-01-08T02:54:05;0.10;;;0.10;;
59984;SDS011;45843;47.532;18.660;2023-01-08T02:57:11;0.20;;;0.20;;
59984;SDS011;45843;47.532;18.660;2023-01-08T03:00:17;0.20;;;0.20;;
59984;SDS011;45843;47.532;18.660;2023-01-08T03:03:24;0.20;;;0.20;;
59984;SDS011;45843;47.532;18.660;2023-01-08T03:06:29;0.22;;;0.22;;
59984;SDS011;45843;47.532;18.660;2023-01-08T03:09:35;0.10;;;0.10;;
59984;SDS011;45843;47.532;18.660;2023-01-08T03:12:05;0.25;;;0.25;;
59984;SDS011;45843;47.532;18.660;2023-01-08T03:15:05;0.10;;;0.10;;
59984;SDS011;45843;47.532;18.660;2023-01-08T03:17:34;0.13;;;0.13;;
59984;SDS011;45843;47.532;18.660;2023-01-08T03:20:38;0.28;;;0.28;;
59984;SDS011;45843;47.532;18.660;2023-01-08T03:23:45;0.30;;;0.30;;
59984;SDS011;45843;47.532;18.660;2023-01-08T03:26:12;0.20;;;0.20;;
59984;SDS011;45843;47.532;18.660;2023-01-08T03:29:18;0.20;;;0.20;;
59984;SDS011;45843;47.532;18.660;2023-01-08T03:32:25;0.20;;;0.20;;
59984;SDS011;45843;47.532;18.660;2023-01-08T03:34:53;0.20;;;0.20;;
59984;SDS011;45843;47.532;18.660;2023-01-08T03:37:22;0.30;;;0.30;;
59984;SDS011;45843;47.532;18.660;2023-01-08T03:42:16;0.30;;;0.30;;
59984;SDS011;45843;47.532;18.660;2023-01-08T03:44:43;0.35;;;0.35;;
59984;SDS011;45843;47.532;18.660;2023-01-08T03:47:49;0.20;;;0.20;;
59984;SDS011;45843;47.532;18.660;2023-01-08T03:50:56;0.20;;;0.20;;
59984;SDS011;45843;47.532;18.660;2023-01-08T03:54:02;0.30;;;0.30;;
59984;SDS011;45843;47.532;18.660;2023-01-08T03:57:08;0.30;;;0.30;;
59984;SDS011;45843;47.532;18.660;2023-01-08T04:00:15;0.20;;;0.20;;
59984;SDS011;45843;47.532;18.660;2023-01-08T04:03:21;0.10;;;0.10;;
59984;SDS011;45843;47.532;18.660;2023-01-08T04:06:27;0.20;;;0.20;;
59984;SDS011;45843;47.532;18.660;2023-01-08T04:09:32;0.30;;;0.30;;
59984;SDS011;45843;47.532;18.660;2023-01-08T04:12:39;0.20;;;0.20;;
59984;SDS011;45843;47.532;18.660;2023-01-08T04:15:48;0.35;;;0.35;;
59984;SDS011;45843;47.532;18.660;2023-01-08T04:18:30;0.25;;;0.25;;
59984;SDS011;45843;47.532;18.660;2023-01-08T04:21:36;0.22;;;0.22;;
59984;SDS011;45843;47.532;18.660;2023-01-08T04:24:41;0.20;;;0.20;;
59984;SDS011;45843;47.532;18.660;2023-01-08T04:27:47;0.20;;;0.20;;
59984;SDS011;45843;47.532;18.660;2023-01-08T04:30:54;0.13;;;0.13;;
59984;SDS011;45843;47.532;18.660;2023-01-08T04:34:00;0.20;;;0.20;;
59984;SDS011;45843;47.532;18.660;2023-01-08T04:37:06;0.20;;;0.20;;
59984;SDS011;45843;47.532;18.660;2023-01-08T04:40:12;0.20;;;0.20;;
59984;SDS011;45843;47.532;18.660;2023-01-08T04:52:22;0.20;;;0.20;;
59984;SDS011;45843;47.532;18.660;2023-01-08T04:54:48;0.30;;;0.30;;
59984;SDS011;45843;47.532;18.660;2023-01-08T04:57:54;0.13;;;0.13;;
59984;SDS011;45843;47.532;18.660;2023-01-08T05:01:07;0.20;;;0.20;;
59984;SDS011;45843;47.532;18.660;2023-01-08T05:04:08;0.25;;;0.25;;
59984;SDS011;45843;47.532;18.660;2023-01-08T05:07:12;0.20;;;0.20;;
59984;SDS011;45843;47.532;18.660;2023-01-08T05:10:18;0.30;;;0.30;;
59984;SDS011;45843;47.532;18.660;2023-01-08T05:13:24;0.20;;;0.20;;
59984;SDS011;45843;47.532;18.660;2023-01-08T05:16:31;0.20;;;0.20;;
59984;SDS011;45843;47.532;18.660;2023-01-08T05:19:37;0.20;;;0.20;;
59984;SDS011;45843;47.532;18.660;2023-01-08T05:22:43;0.20;;;0.20;;
59984;SDS011;45843;47.532;18.660;2023-01-08T05:25:49;0.10;;;0.10;;
59984;SDS011;45843;47.532;18.660;2023-01-08T05:28:16;0.20;;;0.20;;
59984;SDS011;45843;47.532;18.660;2023-01-08T05:30:42;0.30;;;0.30;;
59984;SDS011;45843;47.532;18.660;2023-01-08T05:33:49;0.30;;;0.30;;
59984;SDS011;45843;47.532;18.660;2023-01-08T05:36:15;0.22;;;0.22;;
59984;SDS011;45843;47.532;18.660;2023-01-08T05:39:22;0.20;;;0.20;;
59984;SDS011;45843;47.532;18.660;2023-01-08T05:42:28;0.10;;;0.10;;
59984;SDS011;45843;47.532;18.660;2023-01-08T05:45:34;0.38;;;0.38;;
59984;SDS011;45843;47.532;18.660;2023-01-08T05:48:41;0.20;;;0.20;;
59984;SDS011;45843;47.532;18.660;2023-01-08T05:51:46;0.22;;;0.22;;
59984;SDS011;45843;47.532;18.660;2023-01-08T05:54:12;0.20;;;0.20;;
59984;SDS011;45843;47.532;18.660;2023-01-08T05:57:18;0.28;;;0.28;;
59984;SDS011;45843;47.532;18.660;2023-01-08T06:00:25;0.40;;;0.40;;
59984;SDS011;45843;47.532;18.660;2023-01-08T06:03:31;0.30;;;0.30;;
59984;SDS011;45843;47.532;18.660;2023-01-08T06:06:37;0.20;;;0.20;;
59984;SDS011;45843;47.532;18.660;2023-01-08T06:09:43;0.30;;;0.30;;
59984;SDS011;45843;47.532;18.660;2023-01-08T06:12:49;0.30;;;0.30;;
59984;SDS011;45843;47.532;18.660;2023-01-08T06:15:59;0.30;;;0.30;;
59984;SDS011;45843;47.532;18.660;2023-01-08T06:19:05;0.40;;;0.40;;
59984;SDS011;45843;47.532;18.660;2023-01-08T06:22:11;0.10;;;0.10;;
59984;SDS011;45843;47.532;18.660;2023-01-08T06:24:38;0.10;;;0.10;;
59984;SDS011;45843;47.532;18.660;2023-01-08T06:27:44;0.30;;;0.30;;
59984;SDS011;45843;47.532;18.660;2023-01-08T06:30:50;0.15;;;0.15;;
59984;SDS011;45843;47.532;18.660;2023-01-08T06:33:56;0.15;;;0.15;;
59984;SDS011;45843;47.532;18.660;2023-01-08T06:37:03;0.25;;;0.25;;
59984;SDS011;45843;47.532;18.660;2023-01-08T06:40:09;0.10;;;0.10;;
59984;SDS011;45843;47.532;18.660;2023-01-08T06:43:15;0.30;;;0.30;;
59984;SDS011;45843;47.532;18.660;2023-01-08T06:46:21;0.20;;;0.20;;
59984;SDS011;45843;47.532;18.660;2023-01-08T06:49:27;0.20;;;0.20;;
59984;SDS011;45843;47.532;18.660;2023-01-08T06:52:34;0.20;;;0.20;;
59984;SDS011;45843;47.532;18.660;2023-01-08T06:55:40;0.15;;;0.15;;
59984;SDS011;45843;47.532;18.660;2023-01-08T06:58:46;0.20;;;0.20;;
59984;SDS011;45843;47.532;18.660;2023-01-08T07:01:53;0.15;;;0.15;;
59984;SDS011;45843;47.532;18.660;2023-01-08T07:04:59;0.35;;;0.35;;
59984;SDS011;45843;47.532;18.660;2023-01-08T07:08:05;0.30;;;0.30;;
59984;SDS011;45843;47.532;18.660;2023-01-08T07:11:12;0.10;;;0.10;;
59984;SDS011;45843;47.532;18.660;2023-01-08T07:14:18;0.20;;;0.20;;
59984;SDS011;45843;47.532;18.660;2023-01-08T07:17:24;0.10;;;0.10;;
59984;SDS011;45843;47.532;18.660;2023-01-08T07:20:31;0.20;;;0.20;;
59984;SDS011;45843;47.532;18.660;2023-01-08T07:23:36;0.20;;;0.20;;
59984;SDS011;45843;47.532;18.660;2023-01-08T07:26:11;0.28;;;0.28;;
59984;SDS011;45843;47.532;18.660;2023-01-08T07:29:17;0.10;;;0.10;;
59984;SDS011;45843;47.532;18.660;2023-01-08T07:32:24;0.20;;;0.20;;
59984;SDS011;45843;47.532;18.660;2023-01-08T07:35:30;0.17;;;0.17;;
59984;SDS011;45843;47.532;18.660;2023-01-08T07:38:36;0.20;;;0.20;;
59984;SDS011;45843;47.532;18.660;2023-01-08T07:41:42;0.30;;;0.30;;
59984;SDS011;45843;47.532;18.660;2023-01-08T07:44:49;0.10;;;0.10;;
59984;SDS011;45843;47.532;18.660;2023-01-08T07:47:55;0.20;;;0.20;;
59984;SDS011;45843;47.532;18.660;2023-01-08T07:51:01;0.20;;;0.20;;
59984;SDS011;45843;47.532;18.660;2023-01-08T07:54:06;0.10;;;0.10;;
59984;SDS011;45843;47.532;18.660;2023-01-08T07:57:12;0.20;;;0.20;;
59984;SDS011;45843;47.532;18.660;2023-01-08T08:00:18;0.13;;;0.13;;
59984;SDS011;45843;47.532;18.660;2023-01-08T08:03:24;0.10;;;0.10;;
59984;SDS011;45843;47.532;18.660;2023-01-08T08:06:31;0.13;;;0.13;;
59984;SDS011;45843;47.532;18.660;2023-01-08T08:09:37;0.22;;;0.22;;
59984;SDS011;45843;47.532;18.660;2023-01-08T08:12:44;0.30;;;0.30;;
59984;SDS011;45843;47.532;18.660;2023-01-08T08:15:49;0.20;;;0.20;;
59984;SDS011;45843;47.532;18.660;2023-01-08T08:18:57;0.10;;;0.10;;
59984;SDS011;45843;47.532;18.660;2023-01-08T08:22:02;0.20;;;0.20;;
59984;SDS011;45843;47.532;18.660;2023-01-08T08:24:29;0.17;;;0.17;;
59984;SDS011;45843;47.532;18.660;2023-01-08T08:27:35;0.20;;;0.20;;
59984;SDS011;45843;47.532;18.660;2023-01-08T08:30:41;0.13;;;0.13;;
59984;SDS011;45843;47.532;18.660;2023-01-08T08:33:47;0.20;;;0.20;;
59984;SDS011;45843;47.532;18.660;2023-01-08T08:36:53;0.10;;;0.10;;
59984;SDS011;45843;47.532;18.660;2023-01-08T08:40:00;0.10;;;0.10;;
59984;SDS011;45843;47.532;18.660;2023-01-08T08:43:06;0.10;;;0.10;;
59984;SDS011;45843;47.532;18.660;2023-01-08T08:46:12;0.20;;;0.20;;
59984;SDS011;45843;47.532;18.660;2023-01-08T08:49:18;0.10;;;0.10;;
59984;SDS011;45843;47.532;18.660;2023-01-08T08:52:25;0.20;;;0.20;;
59984;SDS011;45843;47.532;18.660;2023-01-08T08:55:31;0.20;;;0.20;;
59984;SDS011;45843;47.532;18.660;2023-01-08T08:58:37;0.10;;;0.10;;
59984;SDS011;45843;47.532;18.660;2023-01-08T09:01:43;0.30;;;0.30;;
59984;SDS011;45843;47.532;18.660;2023-01-08T09:04:50;0.20;;;0.20;;
59984;SDS011;45843;47.532;18.660;2023-01-08T09:07:56;0.20;;;0.20;;
59984;SDS011;45843;47.532;18.660;2023-01-08T09:11:02;0.25;;;0.25;;
59984;SDS011;45843;47.532;18.660;2023-01-08T09:14:08;0.28;;;0.28;;
59984;SDS011;45843;47.532;18.660;2023-01-08T09:17:14;0.15;;;0.15;;
59984;SDS011;45843;47.532;18.660;2023-01-08T09:20:21;0.10;;;0.10;;
59984;SDS011;45843;47.532;18.660;2023-01-08T09:22:48;0.10;;;0.10;;
59984;SDS011;45843;47.532;18.660;2023-01-08T09:25:58;0.20;;;0.20;;
59984;SDS011;45843;47.532;18.660;2023-01-08T09:28:51;0.10;;;0.10;;
59984;SDS011;45843;47.532;18.660;2023-01-08T09:31:39;0.10;;;0.10;;
59984;SDS011;45843;47.532;18.660;2023-01-08T09:34:06;0.08;;;0.08;;
59984;SDS011;45843;47.532;18.660;2023-01-08T09:36:32;0.20;;;0.20;;
59984;SDS011;45843;47.532;18.660;2023-01-08T09:38:59;0.10;;;0.10;;
59984;SDS011;45843;47.532;18.660;2023-01-08T09:42:05;0.10;;;0.10;;
59984;SDS011;45843;47.532;18.660;2023-01-08T09:45:15;0.10;;;0.10;;
59984;SDS011;45843;47.532;18.660;2023-01-08T09:48:18;0.08;;;0.08;;
59984;SDS011;45843;47.532;18.660;2023-01-08T09:50:47;0.20;;;0.20;;
59984;SDS011;45843;47.532;18.660;2023-01-08T09:53:14;0.10;;;0.10;;
59984;SDS011;45843;47.532;18.660;2023-01-08T09:55:41;0.10;;;0.10;;
59984;SDS011;45843;47.532;18.660;2023-01-08T09:58:18;0.05;;;0.05;;
59984;SDS011;45843;47.532;18.660;2023-01-08T10:00:47;0.10;;;0.10;;
59984;SDS011;45843;47.532;18.660;2023-01-08T10:03:14;0.08;;;0.08;;
59984;SDS011;45843;47.532;18.660;2023-01-08T10:05:40;0.10;;;0.10;;
59984;SDS011;45843;47.532;18.660;2023-01-08T10:08:13;0.20;;;0.20;;
59984;SDS011;45843;47.532;18.660;2023-01-08T10:13:26;0.15;;;0.15;;
59984;SDS011;45843;47.532;18.660;2023-01-08T10:16:33;0.10;;;0.10;;
59984;SDS011;45843;47.532;18.660;2023-01-08T10:19:16;0.10;;;0.10;;
59984;SDS011;45843;47.532;18.660;2023-01-08T10:21:42;0.10;;;0.10;;
59984;SDS011;45843;47.532;18.660;2023-01-08T10:24:32;0.10;;;0.10;;
59984;SDS011;45843;47.532;18.660;2023-01-08T10:27:05;0.10;;;0.10;;
59984;SDS011;45843;47.532;18.660;2023-01-08T10:30:13;0.10;;;0.10;;
59984;SDS011;45843;47.532;18.660;2023-01-08T10:33:17;0.10;;;0.10;;
59984;SDS011;45843;47.532;18.660;2023-01-08T10:36:23;0.10;;;0.10;;
59984;SDS011;45843;47.532;18.660;2023-01-08T10:39:29;0.05;;;0.05;;
59984;SDS011;45843;47.532;18.660;2023-01-08T10:42:35;0.10;;;0.10;;
59984;SDS011;45843;47.532;18.660;2023-01-08T10:45:19;0.05;;;0.05;;
59984;SDS011;45843;47.532;18.660;2023-01-08T10:47:48;0.10;;;0.10;;
59984;SDS011;45843;47.532;18.660;2023-01-08T10:50:23;0.00;;;0.00;;
59984;SDS011;45843;47.532;18.660;2023-01-08T10:52:50;0.03;;;0.03;;
59984;SDS011;45843;47.532;18.660;2023-01-08T10:58:00;0.10;;;0.10;;
59984;SDS011;45843;47.532;18.660;2023-01-08T11:00:28;0.10;;;0.10;;
59984;SDS011;45843;47.532;18.660;2023-01-08T11:02:55;0.10;;;0.10;;
59984;SDS011;45843;47.532;18.660;2023-01-08T11:06:08;0.00;;;0.00;;
59984;SDS011;45843;47.532;18.660;2023-01-08T11:08:53;0.10;;;0.10;;
59984;SDS011;45843;47.532;18.660;2023-01-08T11:11:58;0.00;;;0.00;;
59984;SDS011;45843;47.532;18.660;2023-01-08T11:16:51;0.03;;;0.03;;
59984;SDS011;45843;47.532;18.660;2023-01-08T11:19:21;0.00;;;0.00;;
59984;SDS011;45843;47.532;18.660;2023-01-08T11:22:01;0.00;;;0.00;;
59984;SDS011;45843;47.532;18.660;2023-01-08T11:24:32;0.03;;;0.03;;
59984;SDS011;45843;47.532;18.660;2023-01-08T11:29:45;0.00;;;0.00;;
59984;SDS011;45843;47.532;18.660;2023-01-08T11:40:15;0.10;;;0.10;;
59984;SDS011;45843;47.532;18.660;2023-01-08T11:52:16;0.00;;;0.00;;
59984;SDS011;45843;47.532;18.660;2023-01-08T11:55:25;0.10;;;0.10;;
59984;SDS011;45843;47.532;18.660;2023-01-08T12:03:01;0.00;;;0.00;;
59984;SDS011;45843;47.532;18.660;2023-01-08T12:08:11;0.00;;;0.00;;
59984;SDS011;45843;47.532;18.660;2023-01-08T12:10:48;0.10;;;0.10;;
59984;SDS011;45843;47.532;18.660;2023-01-08T12:21:18;0.10;;;0.10;;
59984;SDS011;45843;47.532;18.660;2023-01-08T12:23:56;0.00;;;0.00;;
59984;SDS011;45843;47.532;18.660;2023-01-08T12:32:37;0.03;;;0.03;;
59984;SDS011;45843;47.532;18.660;2023-01-08T12:35:48;0.10;;;0.10;;
59984;SDS011;45843;47.532;18.660;2023-01-08T12:38:52;0.10;;;0.10;;
59984;SDS011;45843;47.532;18.660;2023-01-08T12:41:59;0.00;;;0.00;;
59984;SDS011;45843;47.532;18.660;2023-01-08T12:45:04;0.10;;;0.10;;
59984;SDS011;45843;47.532;18.660;2023-01-08T12:48:13;0.00;;;0.00;;
59984;SDS011;45843;47.532;18.660;2023-01-08T12:51:24;0.00;;;0.00;;
59984;SDS011;45843;47.532;18.660;2023-01-08T12:57:28;0.00;;;0.00;;
59984;SDS011;45843;47.532;18.660;2023-01-08T13:00:36;0.10;;;0.10;;
59984;SDS011;45843;47.532;18.660;2023-01-08T13:03:40;0.00;;;0.00;;
59984;SDS011;45843;47.532;18.660;2023-01-08T13:06:57;0.00;;;0.00;;
59984;SDS011;45843;47.532;18.660;2023-01-08T13:10:00;0.10;;;0.10;;
59984;SDS011;45843;47.532;18.660;2023-01-08T13:13:06;0.08;;;0.08;;
59984;SDS011;45843;47.532;18.660;2023-01-08T13:15:32;0.00;;;0.00;;
59984;SDS011;45843;47.532;18.660;2023-01-08T13:18:03;0.00;;;0.00;;
59984;SDS011;45843;47.532;18.660;2023-01-08T13:20:31;0.00;;;0.00;;
59984;SDS011;45843;47.532;18.660;2023-01-08T13:22:59;0.10;;;0.10;;
59984;SDS011;45843;47.532;18.660;2023-01-08T13:25:28;0.10;;;0.10;;
59984;SDS011;45843;47.532;18.660;2023-01-08T13:27:55;0.00;;;0.00;;
59984;SDS011;45843;47.532;18.660;2023-01-08T13:30:35;0.00;;;0.00;;
59984;SDS011;45843;47.532;18.660;2023-01-08T13:35:51;0.10;;;0.10;;
59984;SDS011;45843;47.532;18.660;2023-01-08T13:38:19;0.00;;;0.00;;
59984;SDS011;45843;47.532;18.660;2023-01-08T13:46:06;0.10;;;0.10;;
59984;SDS011;45843;47.532;18.660;2023-01-08T13:49:18;0.10;;;0.10;;
59984;SDS011;45843;47.532;18.660;2023-01-08T13:53:03;0.10;;;0.10;;
59984;SDS011;45843;47.532;18.660;2023-01-08T13:55:37;0.10;;;0.10;;
59984;SDS011;45843;47.532;18.660;2023-01-08T13:58:44;0.08;;;0.08;;
59984;SDS011;45843;47.532;18.660;2023-01-08T14:01:55;0.10;;;0.10;;
59984;SDS011;45843;47.532;18.660;2023-01-08T14:04:59;0.00;;;0.00;;
59984;SDS011;45843;47.532;18.660;2023-01-08T14:08:19;0.00;;;0.00;;
59984;SDS011;45843;47.532;18.660;2023-01-08T14:11:11;0.00;;;0.00;;
59984;SDS011;45843;47.532;18.660;2023-01-08T14:13:38;0.03;;;0.03;;
59984;SDS011;45843;47.532;18.660;2023-01-08T14:16:04;0.13;;;0.13;;
59984;SDS011;45843;47.532;18.660;2023-01-08T14:18:31;0.17;;;0.10;;
59984;SDS011;45843;47.532;18.660;2023-01-08T14:20:57;0.05;;;0.05;;
59984;SDS011;45843;47.532;18.660;2023-01-08T14:23:28;0.10;;;0.10;;
59984;SDS011;45843;47.532;18.660;2023-01-08T14:25:56;0.10;;;0.10;;
59984;SDS011;45843;47.532;18.660;2023-01-08T14:28:24;0.00;;;0.00;;
59984;SDS011;45843;47.532;18.660;2023-01-08T14:30:51;0.00;;;0.00;;
59984;SDS011;45843;47.532;18.660;2023-01-08T14:33:19;0.10;;;0.10;;
59984;SDS011;45843;47.532;18.660;2023-01-08T14:35:47;0.10;;;0.10;;
59984;SDS011;45843;47.532;18.660;2023-01-08T14:38:16;0.20;;;0.20;;
59984;SDS011;45843;47.532;18.660;2023-01-08T14:40:44;0.00;;;0.00;;
59984;SDS011;45843;47.532;18.660;2023-01-08T14:43:13;0.00;;;0.00;;
59984;SDS011;45843;47.532;18.660;2023-01-08T14:45:45;0.08;;;0.08;;
59984;SDS011;45843;47.532;18.660;2023-01-08T14:50:39;0.00;;;0.00;;
59984;SDS011;45843;47.532;18.660;2023-01-08T14:55:34;0.20;;;0.10;;
59984;SDS011;45843;47.532;18.660;2023-01-08T14:58:02;0.20;;;0.20;;
59984;SDS011;45843;47.532;18.660;2023-01-08T15:00:29;0.10;;;0.10;;
59984;SDS011;45843;47.532;18.660;2023-01-08T15:02:57;0.20;;;0.20;;
59984;SDS011;45843;47.532;18.660;2023-01-08T15:05:30;0.25;;;0.25;;
59984;SDS011;45843;47.532;18.660;2023-01-08T15:08:19;0.20;;;0.20;;
59984;SDS011;45843;47.532;18.660;2023-01-08T15:10:57;0.10;;;0.10;;
59984;SDS011;45843;47.532;18.660;2023-01-08T15:13:24;0.00;;;0.00;;
59984;SDS011;45843;47.532;18.660;2023-01-08T15:15:59;0.00;;;0.00;;
59984;SDS011;45843;47.532;18.660;2023-01-08T15:20:54;0.10;;;0.10;;
59984;SDS011;45843;47.532;18.660;2023-01-08T15:23:25;0.00;;;0.00;;
59984;SDS011;45843;47.532;18.660;2023-01-08T15:25:52;0.10;;;0.10;;
59984;SDS011;45843;47.532;18.660;2023-01-08T15:28:19;0.00;;;0.00;;
59984;SDS011;45843;47.532;18.660;2023-01-08T15:30:46;0.10;;;0.10;;
59984;SDS011;45843;47.532;18.660;2023-01-08T15:33:22;0.10;;;0.10;;
59984;SDS011;45843;47.532;18.660;2023-01-08T15:35:49;0.10;;;0.10;;
59984;SDS011;45843;47.532;18.660;2023-01-08T15:38:16;0.00;;;0.00;;
59984;SDS011;45843;47.532;18.660;2023-01-08T15:40:48;0.00;;;0.00;;
59984;SDS011;45843;47.532;18.660;2023-01-08T15:43:16;0.00;;;0.00;;
59984;SDS011;45843;47.532;18.660;2023-01-08T15:45:44;0.00;;;0.00;;
59984;SDS011;45843;47.532;18.660;2023-01-08T15:48:11;0.00;;;0.00;;
59984;SDS011;45843;47.532;18.660;2023-01-08T15:50:38;0.10;;;0.10;;
59984;SDS011;45843;47.532;18.660;2023-01-08T15:53:08;0.00;;;0.00;;
59984;SDS011;45843;47.532;18.660;2023-01-08T15:55:35;0.00;;;0.00;;
59984;SDS011;45843;47.532;18.660;2023-01-08T15:58:02;0.00;;;0.00;;
59984;SDS011;45843;47.532;18.660;2023-01-08T16:00:28;0.10;;;0.10;;
59984;SDS011;45843;47.532;18.660;2023-01-08T16:02:55;0.00;;;0.00;;
59984;SDS011;45843;47.532;18.660;2023-01-08T16:05:24;0.10;;;0.10;;
59984;SDS011;45843;47.532;18.660;2023-01-08T16:07:50;0.00;;;0.00;;
59984;SDS011;45843;47.532;18.660;2023-01-08T16:10:17;0.00;;;0.00;;
59984;SDS011;45843;47.532;18.660;2023-01-08T16:12:43;0.10;;;0.10;;
59984;SDS011;45843;47.532;18.660;2023-01-08T16:15:10;0.10;;;0.10;;
59984;SDS011;45843;47.532;18.660;2023-01-08T16:17:37;0.00;;;0.00;;
59984;SDS011;45843;47.532;18.660;2023-01-08T16:20:04;0.00;;;0.00;;
59984;SDS011;45843;47.532;18.660;2023-01-08T16:22:30;0.00;;;0.00;;
59984;SDS011;45843;47.532;18.660;2023-01-08T16:24:57;0.10;;;0.10;;
59984;SDS011;45843;47.532;18.660;2023-01-08T16:27:23;0.00;;;0.00;;
59984;SDS011;45843;47.532;18.660;2023-01-08T16:29:53;0.00;;;0.00;;
59984;SDS011;45843;47.532;18.660;2023-01-08T16:32:20;0.10;;;0.10;;
59984;SDS011;45843;47.532;18.660;2023-01-08T16:34:46;0.08;;;0.08;;
59984;SDS011;45843;47.532;18.660;2023-01-08T16:37:13;0.10;;;0.10;;
59984;SDS011;45843;47.532;18.660;2023-01-08T16:39:40;0.00;;;0.00;;
59984;SDS011;45843;47.532;18.660;2023-01-08T16:42:06;0.00;;;0.00;;
59984;SDS011;45843;47.532;18.660;2023-01-08T16:44:34;0.00;;;0.00;;
59984;SDS011;45843;47.532;18.660;2023-01-08T16:47:01;0.00;;;0.00;;
59984;SDS011;45843;47.532;18.660;2023-01-08T16:49:27;0.00;;;0.00;;
59984;SDS011;45843;47.532;18.660;2023-01-08T16:51:54;0.08;;;0.08;;
59984;SDS011;45843;47.532;18.660;2023-01-08T16:54:21;0.10;;;0.10;;
59984;SDS011;45843;47.532;18.660;2023-01-08T16:56:47;0.10;;;0.10;;
59984;SDS011;45843;47.532;18.660;2023-01-08T16:59:14;0.08;;;0.08;;
59984;SDS011;45843;47.532;18.660;2023-01-08T17:01:40;0.10;;;0.10;;
59984;SDS011;45843;47.532;18.660;2023-01-08T17:04:07;0.00;;;0.00;;
59984;SDS011;45843;47.532;18.660;2023-01-08T17:06:34;0.10;;;0.10;;
59984;SDS011;45843;47.532;18.660;2023-01-08T17:09:03;0.10;;;0.10;;
59984;SDS011;45843;47.532;18.660;2023-01-08T17:11:30;0.00;;;0.00;;
59984;SDS011;45843;47.532;18.660;2023-01-08T17:13:56;0.00;;;0.00;;
59984;SDS011;45843;47.532;18.660;2023-01-08T17:16:23;0.00;;;0.00;;
59984;SDS011;45843;47.532;18.660;2023-01-08T17:18:50;0.00;;;0.00;;
59984;SDS011;45843;47.532;18.660;2023-01-08T17:21:16;0.00;;;0.00;;
59984;SDS011;45843;47.532;18.660;2023-01-08T17:23:45;0.00;;;0.00;;
59984;SDS011;45843;47.532;18.660;2023-01-08T17:26:13;0.10;;;0.10;;
59984;SDS011;45843;47.532;18.660;2023-01-08T17:28:41;0.00;;;0.00;;
59984;SDS011;45843;47.532;18.660;2023-01-08T17:31:08;0.00;;;0.00;;
59984;SDS011;45843;47.532;18.660;2023-01-08T17:33:35;0.05;;;0.05;;
59984;SDS011;45843;47.532;18.660;2023-01-08T17:36:35;0.05;;;0.05;;
59984;SDS011;45843;47.532;18.660;2023-01-08T17:38:56;0.10;;;0.10;;
59984;SDS011;45843;47.532;18.660;2023-01-08T17:41:23;0.10;;;0.10;;
59984;SDS011;45843;47.532;18.660;2023-01-08T17:44:08;0.00;;;0.00;;
59984;SDS011;45843;47.532;18.660;2023-01-08T17:46:38;0.15;;;0.10;;
59984;SDS011;45843;47.532;18.660;2023-01-08T17:49:08;0.00;;;0.00;;
59984;SDS011;45843;47.532;18.660;2023-01-08T17:51:35;0.00;;;0.00;;
59984;SDS011;45843;47.532;18.660;2023-01-08T17:54:03;0.00;;;0.00;;
59984;SDS011;45843;47.532;18.660;2023-01-08T17:56:30;0.10;;;0.10;;
59984;SDS011;45843;47.532;18.660;2023-01-08T17:58:57;0.00;;;0.00;;
59984;SDS011;45843;47.532;18.660;2023-01-08T18:01:24;0.10;;;0.10;;
59984;SDS011;45843;47.532;18.660;2023-01-08T18:03:51;0.00;;;0.00;;
59984;SDS011;45843;47.532;18.660;2023-01-08T18:06:17;0.00;;;0.00;;
59984;SDS011;45843;47.532;18.660;2023-01-08T18:08:45;0.00;;;0.00;;
59984;SDS011;45843;47.532;18.660;2023-01-08T18:11:12;0.00;;;0.00;;
59984;SDS011;45843;47.532;18.660;2023-01-08T18:13:39;0.00;;;0.00;;
59984;SDS011;45843;47.532;18.660;2023-01-08T18:16:07;0.00;;;0.00;;
59984;SDS011;45843;47.532;18.660;2023-01-08T18:18:34;0.10;;;0.10;;
59984;SDS011;45843;47.532;18.660;2023-01-08T18:21:01;0.10;;;0.10;;
59984;SDS011;45843;47.532;18.660;2023-01-08T18:23:28;0.00;;;0.00;;
59984;SDS011;45843;47.532;18.660;2023-01-08T18:25:54;0.00;;;0.00;;
59984;SDS011;45843;47.532;18.660;2023-01-08T18:28:21;0.00;;;0.00;;